sensor_id;sensor_type;location;lat;lon;timestamp;P1;durP1;ratioP1;P2;durP2;ratioP2
22955;SDS011;40888;48.148;11.526;2024-03-06T00:02:25;23.40;;;20.77;;
22955;SDS011;40888;48.148;11.526;2024-03-06T00:04:51;22.90;;;20.40;;
22955;SDS011;40888;48.148;11.526;2024-03-06T00:07:17;24.47;;;21.87;;
22955;SDS011;40888;48.148;11.526;2024-03-06T00:09:42;23.90;;;21.40;;
22955;SDS011;40888;48.148;11.526;2024-03-06T00:12:08;24.77;;;22.17;;
22955;SDS011;40888;48.148;11.526;2024-03-06T00:14:34;24.17;;;21.70;;
22955;SDS011;40888;48.148;11.526;2024-03-06T00:17:01;24.83;;;22.10;;
22955;SDS011;40888;48.148;11.526;2024-03-06T00:19:29;25.30;;;22.60;;
22955;SDS011;40888;48.148;11.526;2024-03-06T00:21:55;24.63;;;22.03;;
22955;SDS011;40888;48.148;11.526;2024-03-06T00:24:21;23.77;;;21.27;;
22955;SDS011;40888;48.148;11.526;2024-03-06T00:26:48;24.27;;;21.87;;
22955;SDS011;40888;48.148;11.526;2024-03-06T00:29:14;24.23;;;21.83;;
22955;SDS011;40888;48.148;11.526;2024-03-06T00:31:43;25.60;;;22.90;;
22955;SDS011;40888;48.148;11.526;2024-03-06T00:34:10;24.57;;;22.13;;
22955;SDS011;40888;48.148;11.526;2024-03-06T00:36:39;24.10;;;21.60;;
22955;SDS011;40888;48.148;11.526;2024-03-06T00:39:05;25.47;;;22.87;;
22955;SDS011;40888;48.148;11.526;2024-03-06T00:41:31;25.80;;;23.10;;
22955;SDS011;40888;48.148;11.526;2024-03-06T00:43:56;26.90;;;24.10;;
22955;SDS011;40888;48.148;11.526;2024-03-06T00:46:22;27.30;;;24.50;;
22955;SDS011;40888;48.148;11.526;2024-03-06T00:48:48;27.00;;;23.70;;
22955;SDS011;40888;48.148;11.526;2024-03-06T00:51:14;28.27;;;25.20;;
22955;SDS011;40888;48.148;11.526;2024-03-06T00:53:39;25.77;;;23.00;;
22955;SDS011;40888;48.148;11.526;2024-03-06T00:56:07;25.13;;;22.53;;
22955;SDS011;40888;48.148;11.526;2024-03-06T00:58:32;26.90;;;23.87;;
22955;SDS011;40888;48.148;11.526;2024-03-06T01:00:58;24.43;;;21.83;;
22955;SDS011;40888;48.148;11.526;2024-03-06T01:03:24;26.43;;;23.73;;
22955;SDS011;40888;48.148;11.526;2024-03-06T01:05:50;26.27;;;23.47;;
22955;SDS011;40888;48.148;11.526;2024-03-06T01:08:18;24.60;;;22.00;;
22955;SDS011;40888;48.148;11.526;2024-03-06T01:10:44;25.87;;;23.17;;
22955;SDS011;40888;48.148;11.526;2024-03-06T01:13:10;26.30;;;23.50;;
22955;SDS011;40888;48.148;11.526;2024-03-06T01:15:36;24.90;;;22.20;;
22955;SDS011;40888;48.148;11.526;2024-03-06T01:18:02;25.17;;;22.57;;
22955;SDS011;40888;48.148;11.526;2024-03-06T01:20:28;22.77;;;20.37;;
22955;SDS011;40888;48.148;11.526;2024-03-06T01:22:54;22.87;;;20.47;;
22955;SDS011;40888;48.148;11.526;2024-03-06T01:25:20;23.77;;;21.27;;
22955;SDS011;40888;48.148;11.526;2024-03-06T01:27:47;23.53;;;21.03;;
22955;SDS011;40888;48.148;11.526;2024-03-06T01:30:14;24.57;;;22.07;;
22955;SDS011;40888;48.148;11.526;2024-03-06T01:32:39;24.23;;;21.70;;
22955;SDS011;40888;48.148;11.526;2024-03-06T01:35:05;26.10;;;23.43;;
22955;SDS011;40888;48.148;11.526;2024-03-06T01:37:32;23.53;;;21.03;;
22955;SDS011;40888;48.148;11.526;2024-03-06T01:39:57;26.47;;;23.67;;
22955;SDS011;40888;48.148;11.526;2024-03-06T01:42:23;24.83;;;22.20;;
22955;SDS011;40888;48.148;11.526;2024-03-06T01:44:49;26.03;;;23.23;;
22955;SDS011;40888;48.148;11.526;2024-03-06T01:47:15;25.07;;;22.37;;
22955;SDS011;40888;48.148;11.526;2024-03-06T01:49:41;23.93;;;21.43;;
22955;SDS011;40888;48.148;11.526;2024-03-06T01:52:07;26.93;;;24.03;;
22955;SDS011;40888;48.148;11.526;2024-03-06T01:54:38;25.83;;;23.13;;
22955;SDS011;40888;48.148;11.526;2024-03-06T01:57:04;26.93;;;24.20;;
22955;SDS011;40888;48.148;11.526;2024-03-06T01:59:33;26.87;;;23.97;;
22955;SDS011;40888;48.148;11.526;2024-03-06T02:01:59;29.10;;;23.93;;
22955;SDS011;40888;48.148;11.526;2024-03-06T02:04:26;28.10;;;24.27;;
22955;SDS011;40888;48.148;11.526;2024-03-06T02:06:53;26.30;;;23.60;;
22955;SDS011;40888;48.148;11.526;2024-03-06T02:09:19;25.93;;;23.07;;
22955;SDS011;40888;48.148;11.526;2024-03-06T02:11:45;25.60;;;22.90;;
22955;SDS011;40888;48.148;11.526;2024-03-06T02:14:11;27.77;;;24.47;;
22955;SDS011;40888;48.148;11.526;2024-03-06T02:16:37;28.33;;;25.33;;
22955;SDS011;40888;48.148;11.526;2024-03-06T02:19:06;29.33;;;25.13;;
22955;SDS011;40888;48.148;11.526;2024-03-06T02:21:33;27.63;;;24.70;;
22955;SDS011;40888;48.148;11.526;2024-03-06T02:23:59;27.87;;;24.77;;
22955;SDS011;40888;48.148;11.526;2024-03-06T02:26:25;29.27;;;24.37;;
22955;SDS011;40888;48.148;11.526;2024-03-06T02:28:52;28.27;;;25.17;;
22955;SDS011;40888;48.148;11.526;2024-03-06T02:31:20;28.87;;;24.73;;
22955;SDS011;40888;48.148;11.526;2024-03-06T02:33:47;28.33;;;25.27;;
22955;SDS011;40888;48.148;11.526;2024-03-06T02:36:22;27.53;;;24.63;;
22955;SDS011;40888;48.148;11.526;2024-03-06T02:38:47;30.23;;;24.93;;
22955;SDS011;40888;48.148;11.526;2024-03-06T02:41:14;30.37;;;25.50;;
22955;SDS011;40888;48.148;11.526;2024-03-06T02:43:41;32.30;;;26.57;;
22955;SDS011;40888;48.148;11.526;2024-03-06T02:46:07;29.73;;;25.73;;
22955;SDS011;40888;48.148;11.526;2024-03-06T02:48:33;29.43;;;25.67;;
22955;SDS011;40888;48.148;11.526;2024-03-06T02:50:59;31.57;;;26.53;;
22955;SDS011;40888;48.148;11.526;2024-03-06T02:53:25;32.40;;;27.00;;
22955;SDS011;40888;48.148;11.526;2024-03-06T02:55:50;31.63;;;25.80;;
22955;SDS011;40888;48.148;11.526;2024-03-06T02:58:16;31.43;;;26.23;;
22955;SDS011;40888;48.148;11.526;2024-03-06T03:00:42;33.53;;;26.73;;
22955;SDS011;40888;48.148;11.526;2024-03-06T03:03:08;33.77;;;27.03;;
22955;SDS011;40888;48.148;11.526;2024-03-06T03:05:37;32.40;;;25.73;;
22955;SDS011;40888;48.148;11.526;2024-03-06T03:08:03;33.67;;;25.83;;
22955;SDS011;40888;48.148;11.526;2024-03-06T03:10:30;32.17;;;25.43;;
22955;SDS011;40888;48.148;11.526;2024-03-06T03:12:56;33.43;;;25.67;;
22955;SDS011;40888;48.148;11.526;2024-03-06T03:15:21;31.13;;;24.40;;
22955;SDS011;40888;48.148;11.526;2024-03-06T03:17:47;32.10;;;25.93;;
22955;SDS011;40888;48.148;11.526;2024-03-06T03:20:13;31.50;;;25.07;;
22955;SDS011;40888;48.148;11.526;2024-03-06T03:22:41;28.80;;;24.03;;
22955;SDS011;40888;48.148;11.526;2024-03-06T03:25:08;31.07;;;25.27;;
22955;SDS011;40888;48.148;11.526;2024-03-06T03:27:36;31.40;;;25.10;;
22955;SDS011;40888;48.148;11.526;2024-03-06T03:30:02;13.50;;;11.50;;
22955;SDS011;40888;48.148;11.526;2024-03-06T03:32:28;12.13;;;10.13;;
22955;SDS011;40888;48.148;11.526;2024-03-06T03:34:54;11.80;;;10.47;;
22955;SDS011;40888;48.148;11.526;2024-03-06T03:37:20;10.80;;;8.30;;
22955;SDS011;40888;48.148;11.526;2024-03-06T03:39:45;7.73;;;7.03;;
22955;SDS011;40888;48.148;11.526;2024-03-06T03:42:11;8.50;;;7.33;;
22955;SDS011;40888;48.148;11.526;2024-03-06T03:44:37;6.67;;;5.97;;
22955;SDS011;40888;48.148;11.526;2024-03-06T03:47:02;9.37;;;6.10;;
22955;SDS011;40888;48.148;11.526;2024-03-06T03:49:28;6.40;;;5.80;;
22955;SDS011;40888;48.148;11.526;2024-03-06T03:51:54;6.40;;;5.70;;
22955;SDS011;40888;48.148;11.526;2024-03-06T03:54:20;5.83;;;5.23;;
22955;SDS011;40888;48.148;11.526;2024-03-06T03:56:45;5.87;;;5.33;;
22955;SDS011;40888;48.148;11.526;2024-03-06T03:59:11;6.27;;;5.63;;
22955;SDS011;40888;48.148;11.526;2024-03-06T04:01:37;5.97;;;5.37;;
22955;SDS011;40888;48.148;11.526;2024-03-06T04:04:02;6.33;;;5.73;;
22955;SDS011;40888;48.148;11.526;2024-03-06T04:06:28;5.80;;;5.20;;
22955;SDS011;40888;48.148;11.526;2024-03-06T04:08:54;5.33;;;4.83;;
22955;SDS011;40888;48.148;11.526;2024-03-06T04:11:20;5.37;;;4.90;;
22955;SDS011;40888;48.148;11.526;2024-03-06T04:13:45;5.27;;;4.77;;
22955;SDS011;40888;48.148;11.526;2024-03-06T04:16:15;5.37;;;4.93;;
22955;SDS011;40888;48.148;11.526;2024-03-06T04:18:42;5.67;;;5.07;;
22955;SDS011;40888;48.148;11.526;2024-03-06T04:21:08;5.37;;;4.90;;
22955;SDS011;40888;48.148;11.526;2024-03-06T04:23:35;5.83;;;5.33;;
22955;SDS011;40888;48.148;11.526;2024-03-06T04:26:01;6.00;;;5.40;;
22955;SDS011;40888;48.148;11.526;2024-03-06T04:28:28;5.53;;;5.03;;
22955;SDS011;40888;48.148;11.526;2024-03-06T04:30:54;5.40;;;4.90;;
22955;SDS011;40888;48.148;11.526;2024-03-06T04:33:20;5.93;;;5.43;;
22955;SDS011;40888;48.148;11.526;2024-03-06T04:35:46;5.60;;;5.10;;
22955;SDS011;40888;48.148;11.526;2024-03-06T04:38:11;6.07;;;5.57;;
22955;SDS011;40888;48.148;11.526;2024-03-06T04:40:37;5.67;;;5.17;;
22955;SDS011;40888;48.148;11.526;2024-03-06T04:43:03;5.33;;;4.83;;
22955;SDS011;40888;48.148;11.526;2024-03-06T04:45:28;5.43;;;4.90;;
22955;SDS011;40888;48.148;11.526;2024-03-06T04:47:54;6.03;;;5.53;;
22955;SDS011;40888;48.148;11.526;2024-03-06T04:50:20;5.97;;;5.47;;
22955;SDS011;40888;48.148;11.526;2024-03-06T04:52:46;6.33;;;5.83;;
22955;SDS011;40888;48.148;11.526;2024-03-06T04:55:12;6.03;;;5.50;;
22955;SDS011;40888;48.148;11.526;2024-03-06T04:57:42;6.67;;;5.67;;
22955;SDS011;40888;48.148;11.526;2024-03-06T05:00:09;7.10;;;6.40;;
22955;SDS011;40888;48.148;11.526;2024-03-06T05:02:35;7.23;;;6.57;;
22955;SDS011;40888;48.148;11.526;2024-03-06T05:05:04;8.47;;;7.63;;
22955;SDS011;40888;48.148;11.526;2024-03-06T05:07:31;7.67;;;6.97;;
22955;SDS011;40888;48.148;11.526;2024-03-06T05:10:00;8.07;;;7.27;;
22955;SDS011;40888;48.148;11.526;2024-03-06T05:12:26;6.80;;;6.20;;
22955;SDS011;40888;48.148;11.526;2024-03-06T05:14:52;6.20;;;5.70;;
22955;SDS011;40888;48.148;11.526;2024-03-06T05:17:19;5.90;;;5.40;;
22955;SDS011;40888;48.148;11.526;2024-03-06T05:19:48;6.87;;;6.27;;
22955;SDS011;40888;48.148;11.526;2024-03-06T05:22:17;7.00;;;6.33;;
22955;SDS011;40888;48.148;11.526;2024-03-06T05:24:43;7.93;;;6.37;;
22955;SDS011;40888;48.148;11.526;2024-03-06T05:27:09;7.03;;;6.37;;
22955;SDS011;40888;48.148;11.526;2024-03-06T05:29:38;7.20;;;6.60;;
22955;SDS011;40888;48.148;11.526;2024-03-06T05:32:04;7.70;;;6.90;;
22955;SDS011;40888;48.148;11.526;2024-03-06T05:34:32;7.03;;;6.43;;
22955;SDS011;40888;48.148;11.526;2024-03-06T05:36:59;7.10;;;6.40;;
22955;SDS011;40888;48.148;11.526;2024-03-06T05:39:25;7.37;;;6.77;;
22955;SDS011;40888;48.148;11.526;2024-03-06T05:41:51;6.60;;;6.00;;
22955;SDS011;40888;48.148;11.526;2024-03-06T05:44:16;7.60;;;6.90;;
22955;SDS011;40888;48.148;11.526;2024-03-06T05:46:42;7.53;;;6.83;;
22955;SDS011;40888;48.148;11.526;2024-03-06T05:49:08;7.40;;;6.70;;
22955;SDS011;40888;48.148;11.526;2024-03-06T05:51:33;7.93;;;7.23;;
22955;SDS011;40888;48.148;11.526;2024-03-06T05:53:59;7.50;;;6.80;;
22955;SDS011;40888;48.148;11.526;2024-03-06T05:56:24;7.90;;;7.20;;
22955;SDS011;40888;48.148;11.526;2024-03-06T05:58:50;8.40;;;7.50;;
22955;SDS011;40888;48.148;11.526;2024-03-06T06:01:16;7.50;;;6.80;;
22955;SDS011;40888;48.148;11.526;2024-03-06T06:03:48;7.73;;;6.93;;
22955;SDS011;40888;48.148;11.526;2024-03-06T06:06:17;7.73;;;7.03;;
22955;SDS011;40888;48.148;11.526;2024-03-06T06:08:46;7.93;;;7.23;;
22955;SDS011;40888;48.148;11.526;2024-03-06T06:11:12;8.20;;;7.40;;
22955;SDS011;40888;48.148;11.526;2024-03-06T06:13:38;7.43;;;6.73;;
22955;SDS011;40888;48.148;11.526;2024-03-06T06:16:07;8.10;;;7.30;;
22955;SDS011;40888;48.148;11.526;2024-03-06T06:18:32;8.00;;;7.20;;
22955;SDS011;40888;48.148;11.526;2024-03-06T06:20:58;7.20;;;6.53;;
22955;SDS011;40888;48.148;11.526;2024-03-06T06:23:24;7.97;;;7.33;;
22955;SDS011;40888;48.148;11.526;2024-03-06T06:25:50;8.00;;;7.30;;
22955;SDS011;40888;48.148;11.526;2024-03-06T06:28:16;8.67;;;7.87;;
22955;SDS011;40888;48.148;11.526;2024-03-06T06:30:42;7.77;;;7.07;;
22955;SDS011;40888;48.148;11.526;2024-03-06T06:33:07;8.37;;;7.57;;
22955;SDS011;40888;48.148;11.526;2024-03-06T06:35:34;8.73;;;7.83;;
22955;SDS011;40888;48.148;11.526;2024-03-06T06:38:00;8.83;;;8.03;;
22955;SDS011;40888;48.148;11.526;2024-03-06T06:40:27;8.80;;;7.90;;
22955;SDS011;40888;48.148;11.526;2024-03-06T06:42:53;8.73;;;7.93;;
22955;SDS011;40888;48.148;11.526;2024-03-06T06:45:19;8.70;;;7.90;;
22955;SDS011;40888;48.148;11.526;2024-03-06T06:47:48;8.53;;;7.83;;
22955;SDS011;40888;48.148;11.526;2024-03-06T06:50:14;9.30;;;8.40;;
22955;SDS011;40888;48.148;11.526;2024-03-06T06:52:41;8.33;;;7.53;;
22955;SDS011;40888;48.148;11.526;2024-03-06T06:55:07;8.60;;;7.60;;
22955;SDS011;40888;48.148;11.526;2024-03-06T06:57:36;7.97;;;7.27;;
22955;SDS011;40888;48.148;11.526;2024-03-06T07:00:05;8.60;;;7.77;;
22955;SDS011;40888;48.148;11.526;2024-03-06T07:02:39;8.00;;;7.23;;
22955;SDS011;40888;48.148;11.526;2024-03-06T07:05:06;9.07;;;8.27;;
22955;SDS011;40888;48.148;11.526;2024-03-06T07:07:33;9.73;;;8.83;;
22955;SDS011;40888;48.148;11.526;2024-03-06T07:09:59;9.37;;;8.53;;
22955;SDS011;40888;48.148;11.526;2024-03-06T07:12:26;10.90;;;9.60;;
22955;SDS011;40888;48.148;11.526;2024-03-06T07:14:51;10.07;;;9.13;;
22955;SDS011;40888;48.148;11.526;2024-03-06T07:17:17;9.43;;;8.53;;
22955;SDS011;40888;48.148;11.526;2024-03-06T07:19:43;9.10;;;8.20;;
22955;SDS011;40888;48.148;11.526;2024-03-06T07:22:08;9.13;;;8.30;;
22955;SDS011;40888;48.148;11.526;2024-03-06T07:24:34;9.80;;;8.90;;
22955;SDS011;40888;48.148;11.526;2024-03-06T07:26:59;9.17;;;8.37;;
22955;SDS011;40888;48.148;11.526;2024-03-06T07:29:26;8.07;;;7.37;;
22955;SDS011;40888;48.148;11.526;2024-03-06T07:31:53;7.80;;;7.10;;
22955;SDS011;40888;48.148;11.526;2024-03-06T07:34:19;7.80;;;7.10;;
22955;SDS011;40888;48.148;11.526;2024-03-06T07:36:46;8.40;;;7.60;;
22955;SDS011;40888;48.148;11.526;2024-03-06T07:39:15;8.03;;;7.23;;
22955;SDS011;40888;48.148;11.526;2024-03-06T07:41:41;8.33;;;7.40;;
22955;SDS011;40888;48.148;11.526;2024-03-06T07:44:07;8.37;;;7.57;;
22955;SDS011;40888;48.148;11.526;2024-03-06T07:46:34;7.80;;;7.10;;
22955;SDS011;40888;48.148;11.526;2024-03-06T07:49:00;7.50;;;6.90;;
22955;SDS011;40888;48.148;11.526;2024-03-06T07:51:28;7.73;;;7.10;;
22955;SDS011;40888;48.148;11.526;2024-03-06T07:53:55;7.43;;;6.73;;
22955;SDS011;40888;48.148;11.526;2024-03-06T07:56:20;7.20;;;6.60;;
22955;SDS011;40888;48.148;11.526;2024-03-06T07:58:46;9.50;;;6.77;;
22955;SDS011;40888;48.148;11.526;2024-03-06T08:01:12;7.83;;;7.13;;
22955;SDS011;40888;48.148;11.526;2024-03-06T08:03:38;7.50;;;6.80;;
22955;SDS011;40888;48.148;11.526;2024-03-06T08:06:08;7.57;;;6.87;;
22955;SDS011;40888;48.148;11.526;2024-03-06T08:08:39;6.87;;;6.27;;
22955;SDS011;40888;48.148;11.526;2024-03-06T08:11:06;7.67;;;6.97;;
22955;SDS011;40888;48.148;11.526;2024-03-06T08:13:31;7.07;;;6.37;;
22955;SDS011;40888;48.148;11.526;2024-03-06T08:15:57;7.90;;;7.10;;
22955;SDS011;40888;48.148;11.526;2024-03-06T08:18:22;7.17;;;6.57;;
22955;SDS011;40888;48.148;11.526;2024-03-06T08:20:48;8.63;;;7.83;;
22955;SDS011;40888;48.148;11.526;2024-03-06T08:23:14;9.10;;;8.20;;
22955;SDS011;40888;48.148;11.526;2024-03-06T08:25:39;9.20;;;8.40;;
22955;SDS011;40888;48.148;11.526;2024-03-06T08:28:05;7.73;;;7.03;;
22955;SDS011;40888;48.148;11.526;2024-03-06T08:30:31;8.17;;;7.37;;
22955;SDS011;40888;48.148;11.526;2024-03-06T08:32:57;9.17;;;8.03;;
22955;SDS011;40888;48.148;11.526;2024-03-06T08:35:23;8.03;;;7.33;;
22955;SDS011;40888;48.148;11.526;2024-03-06T08:37:49;8.47;;;7.67;;
22955;SDS011;40888;48.148;11.526;2024-03-06T08:40:16;8.03;;;7.30;;
22955;SDS011;40888;48.148;11.526;2024-03-06T08:42:49;8.23;;;7.47;;
22955;SDS011;40888;48.148;11.526;2024-03-06T08:45:15;8.13;;;7.33;;
22955;SDS011;40888;48.148;11.526;2024-03-06T08:47:42;8.70;;;7.80;;
22955;SDS011;40888;48.148;11.526;2024-03-06T08:50:10;8.07;;;7.37;;
22955;SDS011;40888;48.148;11.526;2024-03-06T08:52:36;7.73;;;7.10;;
22955;SDS011;40888;48.148;11.526;2024-03-06T08:55:02;8.70;;;7.83;;
22955;SDS011;40888;48.148;11.526;2024-03-06T08:57:31;7.63;;;6.93;;
22955;SDS011;40888;48.148;11.526;2024-03-06T08:59:58;7.43;;;6.73;;
22955;SDS011;40888;48.148;11.526;2024-03-06T09:02:24;7.83;;;7.13;;
22955;SDS011;40888;48.148;11.526;2024-03-06T09:04:50;7.50;;;6.80;;
22955;SDS011;40888;48.148;11.526;2024-03-06T09:07:16;7.70;;;7.10;;
22955;SDS011;40888;48.148;11.526;2024-03-06T09:09:43;7.70;;;6.87;;
22955;SDS011;40888;48.148;11.526;2024-03-06T09:12:09;6.13;;;5.53;;
22955;SDS011;40888;48.148;11.526;2024-03-06T09:14:36;6.07;;;5.43;;
22955;SDS011;40888;48.148;11.526;2024-03-06T09:17:02;6.00;;;5.50;;
22955;SDS011;40888;48.148;11.526;2024-03-06T09:19:29;6.30;;;5.73;;
22955;SDS011;40888;48.148;11.526;2024-03-06T09:21:55;6.03;;;5.53;;
22955;SDS011;40888;48.148;11.526;2024-03-06T09:24:21;5.40;;;5.00;;
22955;SDS011;40888;48.148;11.526;2024-03-06T09:26:48;6.23;;;5.73;;
22955;SDS011;40888;48.148;11.526;2024-03-06T09:29:15;5.60;;;5.10;;
22955;SDS011;40888;48.148;11.526;2024-03-06T09:31:41;5.97;;;4.93;;
22955;SDS011;40888;48.148;11.526;2024-03-06T09:34:07;6.00;;;5.50;;
22955;SDS011;40888;48.148;11.526;2024-03-06T09:36:36;5.63;;;4.93;;
22955;SDS011;40888;48.148;11.526;2024-03-06T09:39:02;6.57;;;5.97;;
22955;SDS011;40888;48.148;11.526;2024-03-06T09:41:29;6.00;;;5.50;;
22955;SDS011;40888;48.148;11.526;2024-03-06T09:43:56;5.53;;;5.13;;
22955;SDS011;40888;48.148;11.526;2024-03-06T09:46:22;6.00;;;5.53;;
22955;SDS011;40888;48.148;11.526;2024-03-06T09:48:49;6.47;;;5.87;;
22955;SDS011;40888;48.148;11.526;2024-03-06T09:51:16;5.90;;;5.43;;
22955;SDS011;40888;48.148;11.526;2024-03-06T09:53:42;5.90;;;5.33;;
22955;SDS011;40888;48.148;11.526;2024-03-06T09:56:08;5.50;;;5.00;;
22955;SDS011;40888;48.148;11.526;2024-03-06T09:58:37;5.83;;;5.33;;
22955;SDS011;40888;48.148;11.526;2024-03-06T10:01:03;5.70;;;5.20;;
22955;SDS011;40888;48.148;11.526;2024-03-06T10:03:32;5.77;;;5.17;;
22955;SDS011;40888;48.148;11.526;2024-03-06T10:06:00;6.13;;;5.53;;
22955;SDS011;40888;48.148;11.526;2024-03-06T10:08:26;6.47;;;5.87;;
22955;SDS011;40888;48.148;11.526;2024-03-06T10:10:52;6.63;;;5.90;;
22955;SDS011;40888;48.148;11.526;2024-03-06T10:13:27;6.20;;;5.70;;
22955;SDS011;40888;48.148;11.526;2024-03-06T10:15:57;6.33;;;5.77;;
22955;SDS011;40888;48.148;11.526;2024-03-06T10:18:26;6.30;;;5.80;;
22955;SDS011;40888;48.148;11.526;2024-03-06T10:20:52;7.03;;;6.30;;
22955;SDS011;40888;48.148;11.526;2024-03-06T10:23:19;6.30;;;5.70;;
22955;SDS011;40888;48.148;11.526;2024-03-06T10:25:46;6.87;;;6.27;;
22955;SDS011;40888;48.148;11.526;2024-03-06T10:28:19;7.17;;;6.57;;
22955;SDS011;40888;48.148;11.526;2024-03-06T10:30:45;8.80;;;7.27;;
22955;SDS011;40888;48.148;11.526;2024-03-06T10:33:12;9.03;;;7.27;;
22955;SDS011;40888;48.148;11.526;2024-03-06T10:35:42;8.07;;;7.27;;
22955;SDS011;40888;48.148;11.526;2024-03-06T10:38:09;7.20;;;6.50;;
22955;SDS011;40888;48.148;11.526;2024-03-06T10:40:39;7.90;;;7.13;;
22955;SDS011;40888;48.148;11.526;2024-03-06T10:43:08;6.80;;;5.97;;
22955;SDS011;40888;48.148;11.526;2024-03-06T10:45:39;7.40;;;6.77;;
22955;SDS011;40888;48.148;11.526;2024-03-06T10:48:06;7.33;;;6.43;;
22955;SDS011;40888;48.148;11.526;2024-03-06T10:50:33;9.13;;;6.83;;
22955;SDS011;40888;48.148;11.526;2024-03-06T10:53:00;8.30;;;7.43;;
22955;SDS011;40888;48.148;11.526;2024-03-06T10:55:28;8.13;;;7.27;;
22955;SDS011;40888;48.148;11.526;2024-03-06T10:57:59;6.60;;;6.00;;
22955;SDS011;40888;48.148;11.526;2024-03-06T11:00:25;6.40;;;5.80;;
22955;SDS011;40888;48.148;11.526;2024-03-06T11:02:53;6.50;;;5.97;;
22955;SDS011;40888;48.148;11.526;2024-03-06T11:05:21;7.03;;;6.33;;
22955;SDS011;40888;48.148;11.526;2024-03-06T11:07:46;7.50;;;6.70;;
22955;SDS011;40888;48.148;11.526;2024-03-06T11:10:12;7.10;;;6.40;;
22955;SDS011;40888;48.148;11.526;2024-03-06T11:12:41;8.37;;;6.93;;
22955;SDS011;40888;48.148;11.526;2024-03-06T11:17:36;7.53;;;6.87;;
22955;SDS011;40888;48.148;11.526;2024-03-06T11:28:17;8.53;;;7.63;;
22955;SDS011;40888;48.148;11.526;2024-03-06T11:31:00;10.70;;;8.47;;
22955;SDS011;40888;48.148;11.526;2024-03-06T11:33:39;9.43;;;8.43;;
22955;SDS011;40888;48.148;11.526;2024-03-06T11:41:27;12.67;;;11.37;;
22955;SDS011;40888;48.148;11.526;2024-03-06T11:44:20;11.30;;;10.07;;
22955;SDS011;40888;48.148;11.526;2024-03-06T11:46:48;11.43;;;9.90;;
22955;SDS011;40888;48.148;11.526;2024-03-06T11:51:48;11.73;;;10.17;;
22955;SDS011;40888;48.148;11.526;2024-03-06T11:54:14;11.87;;;10.37;;
22955;SDS011;40888;48.148;11.526;2024-03-06T11:56:42;11.23;;;10.13;;
22955;SDS011;40888;48.148;11.526;2024-03-06T11:59:10;11.70;;;10.47;;
22955;SDS011;40888;48.148;11.526;2024-03-06T12:01:40;10.93;;;9.83;;
22955;SDS011;40888;48.148;11.526;2024-03-06T12:12:41;13.57;;;12.17;;
22955;SDS011;40888;48.148;11.526;2024-03-06T12:15:10;12.67;;;11.43;;
22955;SDS011;40888;48.148;11.526;2024-03-06T12:17:45;14.67;;;11.93;;
22955;SDS011;40888;48.148;11.526;2024-03-06T12:20:12;17.20;;;13.50;;
22955;SDS011;40888;48.148;11.526;2024-03-06T12:22:59;15.77;;;12.70;;
22955;SDS011;40888;48.148;11.526;2024-03-06T12:25:25;17.27;;;14.33;;
22955;SDS011;40888;48.148;11.526;2024-03-06T12:27:52;13.80;;;12.00;;
22955;SDS011;40888;48.148;11.526;2024-03-06T12:30:19;14.87;;;12.43;;
22955;SDS011;40888;48.148;11.526;2024-03-06T12:32:57;15.97;;;12.83;;
22955;SDS011;40888;48.148;11.526;2024-03-06T12:35:29;13.53;;;12.13;;
22955;SDS011;40888;48.148;11.526;2024-03-06T12:37:55;13.13;;;11.73;;
22955;SDS011;40888;48.148;11.526;2024-03-06T12:40:21;14.63;;;11.93;;
22955;SDS011;40888;48.148;11.526;2024-03-06T12:42:47;15.87;;;12.77;;
22955;SDS011;40888;48.148;11.526;2024-03-06T12:45:15;13.13;;;11.73;;
22955;SDS011;40888;48.148;11.526;2024-03-06T12:47:45;13.37;;;11.97;;
22955;SDS011;40888;48.148;11.526;2024-03-06T12:50:13;13.07;;;11.47;;
22955;SDS011;40888;48.148;11.526;2024-03-06T12:52:39;14.47;;;11.30;;
22955;SDS011;40888;48.148;11.526;2024-03-06T12:55:06;13.63;;;10.93;;
22955;SDS011;40888;48.148;11.526;2024-03-06T12:57:32;12.10;;;10.80;;
22955;SDS011;40888;48.148;11.526;2024-03-06T12:59:59;13.67;;;11.83;;
22955;SDS011;40888;48.148;11.526;2024-03-06T13:02:25;11.93;;;10.63;;
22955;SDS011;40888;48.148;11.526;2024-03-06T13:04:51;14.17;;;11.77;;
22955;SDS011;40888;48.148;11.526;2024-03-06T13:07:17;13.63;;;11.60;;
22955;SDS011;40888;48.148;11.526;2024-03-06T13:09:43;12.43;;;11.07;;
22955;SDS011;40888;48.148;11.526;2024-03-06T13:12:09;12.73;;;11.00;;
22955;SDS011;40888;48.148;11.526;2024-03-06T13:14:35;12.43;;;11.13;;
22955;SDS011;40888;48.148;11.526;2024-03-06T13:17:01;11.50;;;9.90;;
22955;SDS011;40888;48.148;11.526;2024-03-06T13:19:27;12.10;;;9.63;;
22955;SDS011;40888;48.148;11.526;2024-03-06T13:21:53;10.77;;;9.43;;
22955;SDS011;40888;48.148;11.526;2024-03-06T13:24:19;11.30;;;10.10;;
22955;SDS011;40888;48.148;11.526;2024-03-06T13:26:45;10.17;;;8.83;;
22955;SDS011;40888;48.148;11.526;2024-03-06T13:29:12;10.73;;;9.17;;
22955;SDS011;40888;48.148;11.526;2024-03-06T13:31:38;10.70;;;9.60;;
22955;SDS011;40888;48.148;11.526;2024-03-06T13:34:03;10.70;;;8.97;;
22955;SDS011;40888;48.148;11.526;2024-03-06T13:36:29;10.93;;;9.53;;
22955;SDS011;40888;48.148;11.526;2024-03-06T13:38:56;8.87;;;8.00;;
22955;SDS011;40888;48.148;11.526;2024-03-06T13:41:22;9.97;;;8.97;;
22955;SDS011;40888;48.148;11.526;2024-03-06T13:43:48;9.50;;;8.37;;
22955;SDS011;40888;48.148;11.526;2024-03-06T13:46:13;9.67;;;8.73;;
22955;SDS011;40888;48.148;11.526;2024-03-06T13:48:39;10.03;;;8.80;;
22955;SDS011;40888;48.148;11.526;2024-03-06T13:51:05;9.83;;;8.83;;
22955;SDS011;40888;48.148;11.526;2024-03-06T13:53:31;9.40;;;8.33;;
22955;SDS011;40888;48.148;11.526;2024-03-06T13:55:57;9.33;;;8.40;;
22955;SDS011;40888;48.148;11.526;2024-03-06T13:58:22;8.97;;;7.87;;
22955;SDS011;40888;48.148;11.526;2024-03-06T14:00:48;9.10;;;8.03;;
22955;SDS011;40888;48.148;11.526;2024-03-06T14:03:14;8.37;;;7.30;;
22955;SDS011;40888;48.148;11.526;2024-03-06T14:05:40;7.77;;;7.07;;
22955;SDS011;40888;48.148;11.526;2024-03-06T14:08:05;7.63;;;6.90;;
22955;SDS011;40888;48.148;11.526;2024-03-06T14:10:31;7.63;;;6.87;;
22955;SDS011;40888;48.148;11.526;2024-03-06T14:13:00;6.80;;;6.10;;
22955;SDS011;40888;48.148;11.526;2024-03-06T14:15:26;7.87;;;7.10;;
22955;SDS011;40888;48.148;11.526;2024-03-06T14:17:52;9.10;;;8.03;;
22955;SDS011;40888;48.148;11.526;2024-03-06T14:20:21;9.17;;;7.67;;
22955;SDS011;40888;48.148;11.526;2024-03-06T14:22:47;7.40;;;6.50;;
22955;SDS011;40888;48.148;11.526;2024-03-06T14:25:14;6.73;;;6.07;;
22955;SDS011;40888;48.148;11.526;2024-03-06T14:27:40;7.20;;;6.50;;
22955;SDS011;40888;48.148;11.526;2024-03-06T14:30:05;7.33;;;6.63;;
22955;SDS011;40888;48.148;11.526;2024-03-06T14:32:32;7.87;;;6.40;;
22955;SDS011;40888;48.148;11.526;2024-03-06T14:34:58;7.30;;;6.60;;
22955;SDS011;40888;48.148;11.526;2024-03-06T14:37:23;7.43;;;6.70;;
22955;SDS011;40888;48.148;11.526;2024-03-06T14:39:49;7.23;;;6.50;;
22955;SDS011;40888;48.148;11.526;2024-03-06T14:42:16;7.77;;;7.00;;
22955;SDS011;40888;48.148;11.526;2024-03-06T14:44:42;7.40;;;6.60;;
22955;SDS011;40888;48.148;11.526;2024-03-06T14:47:11;7.90;;;7.10;;
22955;SDS011;40888;48.148;11.526;2024-03-06T14:49:37;6.63;;;6.03;;
22955;SDS011;40888;48.148;11.526;2024-03-06T14:52:04;7.27;;;6.30;;